Time;durP1;ratioP1;P1;durP2;ratioP2;P2;SDS_P1;SDS_P2;PMS_P1;PMS_P2;Temp;Humidity;BMP_temperature;BMP_pressure;BME280_temperature;BME280_humidity;BME280_pressure;Samples;Min_cycle;Max_cycle;Signal;HPM_P1;HPM_P2
2022/03/16 00:00:22;;;;;;;19.13;8.83;;;;;;;4.57;100.00;61288.16;5114812;28;20453;-79
2022/03/16 00:02:50;;;;;;;25.90;9.97;;;;;;;4.33;100.00;61272.69;5115069;28;20440;-79
2022/03/16 00:05:23;;;;;;;30.67;12.00;;;;;;;4.11;100.00;61242.78;5114681;28;20449;-79
2022/03/16 00:07:50;;;;;;;22.47;11.10;;;;;;;4.59;100.00;61292.81;5102877;28;20449;-80
2022/03/16 00:10:18;;;;;;;26.27;11.53;;;;;;;4.02;100.00;61220.59;5092220;28;20503;-77
2022/03/16 00:12:46;;;;;;;29.43;11.67;;;;;;;4.47;100.00;61277.50;5093849;28;20875;-77
2022/03/16 00:15:15;;;;;;;26.43;11.17;;;;;;;4.42;100.00;61272.19;5075870;28;20508;-78
2022/03/16 00:17:42;;;;;;;21.13;9.83;;;;;;;3.05;100.00;61133.09;5093996;28;20450;-77
2022/03/16 00:20:12;;;;;;;23.80;11.57;;;;;;;4.07;100.00;61236.00;5093306;28;20438;-81
2022/03/16 00:22:41;;;;;;;28.37;11.00;;;;;;;4.11;100.00;61247.81;5092895;28;20456;-77
2022/03/16 00:25:13;;;;;;;19.03;10.20;;;;;;;4.38;100.00;61275.47;5093864;28;20434;-79
2022/03/16 00:27:44;;;;;;;20.30;8.80;;;;;;;3.94;100.00;61222.16;5093709;28;20802;-79
2022/03/16 00:30:14;;;;;;;14.20;7.63;;;;;;;4.12;100.00;61246.38;5092276;28;20447;-78
2022/03/16 00:32:47;;;;;;;14.40;7.37;;;;;;;4.26;100.00;61261.25;5093865;28;20508;-78
2022/03/16 00:35:17;;;;;;;14.43;7.40;;;;;;;4.40;100.00;61275.63;5092298;28;20536;-80
2022/03/16 00:37:46;;;;;;;17.03;7.97;;;;;;;4.14;100.00;61247.94;5093657;28;20537;-77
2022/03/16 00:40:18;;;;;;;18.43;7.83;;;;;;;3.93;100.00;61225.59;5093562;28;20476;-79
2022/03/16 00:42:46;;;;;;;14.70;7.63;;;;;;;4.41;100.00;61276.69;5093297;28;20880;-79
2022/03/16 00:45:19;;;;;;;19.27;8.33;;;;;;;4.02;100.00;61230.16;5093309;28;20519;-77
2022/03/16 00:47:46;;;;;;;26.80;11.70;;;;;;;4.12;100.00;61251.41;5093294;28;20602;-77
2022/03/16 00:50:13;;;;;;;32.63;11.40;;;;;;;4.25;100.00;61259.66;5093471;28;20469;-78
2022/03/16 00:52:44;;;;;;;34.43;11.70;;;;;;;4.08;100.00;61237.06;5093976;28;20474;-77
2022/03/16 00:55:12;;;;;;;29.67;11.50;;;;;;;2.80;100.00;61109.03;5093185;28;20477;-78
2022/03/16 00:57:40;;;;;;;26.70;10.90;;;;;;;3.84;100.00;61211.53;5093203;28;20442;-77
2022/03/16 01:00:10;;;;;;;28.50;12.53;;;;;;;3.73;100.00;61204.84;5093168;28;20462;-79
2022/03/16 01:02:44;;;;;;;21.20;9.37;;;;;;;3.98;100.00;61231.47;5093047;28;20440;-77
2022/03/16 01:05:14;;;;;;;22.03;10.27;;;;;;;4.02;100.00;61230.69;5092933;28;20508;-80
2022/03/16 01:07:44;;;;;;;20.27;8.33;;;;;;;3.40;100.00;61169.78;5093187;28;20433;-78
2022/03/16 01:10:12;;;;;;;20.40;9.03;;;;;;;2.96;100.00;61121.00;5093690;28;20457;-79
2022/03/16 01:12:40;;;;;;;16.10;8.13;;;;;;;3.29;100.00;61158.06;5092930;28;20495;-79
2022/03/16 01:15:10;;;;;;;18.97;8.87;;;;;;;3.62;100.00;61192.63;5092652;28;20572;-80
2022/03/16 01:17:58;;;;;;;21.10;9.70;;;;;;;3.17;100.00;61143.31;5016896;27;3813768;-77
2022/03/16 01:20:26;;;;;;;21.10;9.73;;;;;;;3.80;100.00;61207.28;5130305;28;20206;-79
2022/03/16 01:22:58;;;;;;;15.87;7.90;;;;;;;3.28;100.00;61149.97;5130839;28;20516;-78
2022/03/16 01:25:31;;;;;;;17.00;8.80;;;;;;;2.57;100.00;61082.09;5130240;28;20523;-79
2022/03/16 01:28:00;;;;;;;21.20;9.73;;;;;;;3.46;100.00;61171.13;5130213;28;20428;-78
2022/03/16 01:30:27;;;;;;;21.13;9.57;;;;;;;3.18;100.00;61149.41;5129648;28;20455;-77
2022/03/16 01:32:56;;;;;;;17.77;8.30;;;;;;;2.95;100.00;61121.91;5129875;28;20432;-79
2022/03/16 01:35:24;;;;;;;20.83;9.77;;;;;;;3.29;100.00;61158.06;5111410;28;20504;-78
2022/03/16 01:37:52;;;;;;;16.37;9.27;;;;;;;3.58;100.00;61188.91;5129700;28;20494;-79
2022/03/16 01:40:20;;;;;;;17.27;9.90;;;;;;;3.33;100.00;61157.81;5129844;28;20428;-78
2022/03/16 01:43:13;;;;;;;20.40;9.33;;;;;;;3.79;100.00;61211.25;5130113;28;20792;-81
2022/03/16 01:45:48;;;;;;;19.23;9.00;;;;;;;3.55;100.00;61183.19;5129690;28;20431;-79
2022/03/16 01:48:18;;;;;;;18.97;9.73;;;;;;;3.53;100.00;61183.06;5129520;28;20428;-79
2022/03/16 01:50:49;;;;;;;16.03;8.73;;;;;;;3.67;100.00;61198.47;5129795;28;20432;-80
2022/03/16 01:53:20;;;;;;;16.53;8.37;;;;;;;3.87;100.00;61219.75;5129491;28;20436;-79
2022/03/16 01:55:49;;;;;;;16.70;9.30;;;;;;;3.92;100.00;61225.09;5110804;28;20447;-78
2022/03/16 01:58:17;;;;;;;20.00;9.17;;;;;;;4.01;100.00;61234.66;5131818;28;20822;-77
2022/03/16 02:00:49;;;;;;;18.20;8.73;;;;;;;4.15;100.00;61249.00;5130389;28;20480;-78
2022/03/16 02:03:19;;;;;;;16.03;8.90;;;;;;;3.98;100.00;61231.47;5114403;28;20429;-80
2022/03/16 02:05:49;;;;;;;19.60;8.50;;;;;;;3.98;100.00;61228.41;5109199;28;20452;-79
2022/03/16 02:08:17;;;;;;;15.77;8.57;;;;;;;3.76;100.00;61202.47;5108968;28;20475;-77
2022/03/16 02:10:43;;;;;;;18.27;8.03;;;;;;;4.04;100.00;61237.84;5111996;28;20442;-78
2022/03/16 02:13:15;;;;;;;20.83;9.10;;;;;;;3.94;100.00;61224.16;5120255;28;20437;-78
2022/03/16 02:15:42;;;;;;;16.47;8.40;;;;;;;4.07;100.00;61241.03;5116155;28;20456;-79
2022/03/16 02:18:09;;;;;;;16.90;8.23;;;;;;;4.01;100.00;61229.59;5100281;28;20464;-77
2022/03/16 02:20:41;;;;;;;22.53;9.83;;;;;;;3.83;100.00;61215.50;5094206;28;20441;-77
2022/03/16 02:23:11;;;;;;;20.43;9.57;;;;;;;3.23;100.00;61151.69;5090738;28;20837;-77
2022/03/16 02:25:51;;;;;;;19.40;10.17;;;;;;;3.97;100.00;61227.88;5071500;28;20442;-78
2022/03/16 02:28:20;;;;;;;16.83;9.13;;;;;;;3.38;100.00;61170.16;5080406;28;20470;-78
2022/03/16 02:30:49;;;;;;;18.03;9.27;;;;;;;3.81;100.00;61218.41;5076020;28;20459;-78
2022/03/16 02:33:16;;;;;;;21.17;10.30;;;;;;;3.93;100.00;61221.09;5075345;28;20450;-79
2022/03/16 02:35:46;;;;;;;30.33;10.90;;;;;;;3.18;100.00;61148.91;5074972;28;20438;-79
2022/03/16 02:38:15;;;;;;;20.77;9.67;;;;;;;4.05;100.00;61238.91;5074559;28;20480;-78
2022/03/16 02:40:42;;;;;;;24.60;10.43;;;;;;;3.79;100.00;61208.19;5074669;28;20431;-79
2022/03/16 02:43:13;;;;;;;18.37;9.53;;;;;;;3.82;100.00;61214.44;5056278;28;20443;-77
2022/03/16 02:45:46;;;;;;;25.80;9.80;;;;;;;3.51;100.00;61181.47;5074640;28;20465;-79
2022/03/16 02:48:22;;;;;;;20.07;10.30;;;;;;;4.04;100.00;61237.84;5074396;28;20442;-78
2022/03/16 02:50:50;;;;;;;20.33;10.60;;;;;;;3.92;100.00;61220.03;5074504;28;20434;-79
2022/03/16 02:53:20;;;;;;;23.23;11.03;;;;;;;3.66;100.00;61199.41;5074012;28;20445;-79
2022/03/16 02:55:48;;;;;;;20.83;10.73;;;;;;;4.05;100.00;61233.88;5074656;28;20431;-78
2022/03/16 02:58:16;;;;;;;19.13;10.10;;;;;;;3.79;100.00;61210.69;5073607;28;20486;-78
2022/03/16 03:00:43;;;;;;;20.03;9.90;;;;;;;3.73;100.00;61207.38;5073942;28;20487;-80
2022/03/16 03:03:11;;;;;;;19.53;9.93;;;;;;;3.66;100.00;61197.41;5073723;28;20454;-81
2022/03/16 03:05:55;;;;;;;23.70;9.87;;;;;;;3.76;100.00;61208.06;5073785;28;20459;-81
2022/03/16 03:08:24;;;;;;;21.57;10.20;;;;;;;4.07;100.00;61243.56;5074242;28;20447;-81
2022/03/16 03:10:53;;;;;;;18.80;9.53;;;;;;;4.03;100.00;61236.25;5073773;28;20442;-78
2022/03/16 03:13:21;;;;;;;16.97;9.37;;;;;;;4.12;100.00;61246.38;5073742;28;20431;-77
2022/03/16 03:15:48;;;;;;;17.13;9.50;;;;;;;3.68;100.00;61202.06;5073651;28;20801;-78
2022/03/16 03:18:15;;;;;;;18.60;9.43;;;;;;;4.04;100.00;61237.31;5090883;28;20999;-77
2022/03/16 03:20:44;;;;;;;17.03;8.97;;;;;;;3.86;100.00;61221.22;5094276;28;20446;-78
2022/03/16 03:23:11;;;;;;;14.07;9.13;;;;;;;4.03;100.00;61234.25;5093478;28;20856;-77
2022/03/16 03:25:40;;;;;;;18.43;9.60;;;;;;;4.02;100.00;61235.72;5093506;28;20437;-79
2022/03/16 03:28:07;;;;;;;23.93;11.03;;;;;;;3.92;100.00;61225.09;5075563;28;20444;-78
2022/03/16 03:30:34;;;;;;;25.37;10.30;;;;;;;3.94;100.00;61227.22;5093575;28;20442;-79
2022/03/16 03:33:01;;;;;;;21.80;10.03;;;;;;;3.49;100.00;61179.34;5093245;28;20499;-77
2022/03/16 03:35:31;;;;;;;21.03;10.50;;;;;;;3.72;100.00;61206.31;5093464;28;20506;-77
2022/03/16 03:37:59;;;;;;;22.83;11.00;;;;;;;3.74;100.00;61205.94;5093280;28;20477;-79
2022/03/16 03:40:26;;;;;;;27.33;11.27;;;;;;;3.80;100.00;61217.34;5092371;28;21023;-78
2022/03/16 03:42:58;;;;;;;24.00;11.00;;;;;;;4.10;100.00;61243.69;5092197;28;20443;-78
2022/03/16 03:45:25;;;;;;;25.97;11.67;;;;;;;2.87;100.00;61108.38;5093238;28;20509;-77
2022/03/16 03:47:54;;;;;;;32.40;12.03;;;;;;;3.85;100.00;61217.09;5093299;28;20454;-77
2022/03/16 03:50:21;;;;;;;34.03;12.50;;;;;;;3.85;100.00;61215.09;5093215;28;20438;-78
2022/03/16 03:52:48;;;;;;;32.37;11.50;;;;;;;3.95;100.00;61227.72;5093435;28;20503;-79
2022/03/16 03:55:16;;;;;;;28.33;12.47;;;;;;;3.93;100.00;61223.63;5093114;28;20841;-78
2022/03/16 03:57:43;;;;;;;31.17;13.00;;;;;;;3.76;100.00;61208.06;5092607;28;20946;-78
2022/03/16 04:00:16;;;;;;;33.77;13.40;;;;;;;3.52;100.00;61185.06;5093099;28;20462;-78
2022/03/16 04:02:50;;;;;;;41.67;14.73;;;;;;;1.52;100.00;60974.16;5093065;28;20506;-80
2022/03/16 04:05:18;;;;;;;39.23;14.37;;;;;;;3.88;100.00;61220.81;5076672;28;20441;-78
2022/03/16 04:07:45;;;;;;;30.67;14.13;;;;;;;3.95;100.00;61225.22;5107560;28;20445;-75
2022/03/16 04:10:13;;;;;;;31.90;15.00;;;;;;;3.82;100.00;61216.97;5098792;28;20483;-77
2022/03/16 04:12:42;;;;;;;29.17;14.77;;;;;;;3.46;100.00;61166.09;5093045;28;20446;-77
2022/03/16 04:15:12;;;;;;;31.50;13.77;;;;;;;3.34;100.00;61165.91;5093374;28;20811;-80
2022/03/16 04:17:40;;;;;;;31.77;15.20;;;;;;;3.38;100.00;61168.16;5080353;28;20851;-82
2022/03/16 04:20:15;;;;;;;34.60;16.23;;;;;;;3.66;100.00;61197.41;5072721;28;20434;-78
2022/03/16 04:22:44;;;;;;;37.57;16.50;;;;;;;3.29;100.00;61158.06;5072612;28;20440;-78
2022/03/16 04:25:12;;;;;;;47.57;17.23;;;;;;;3.19;100.00;61144.91;5072416;28;20447;-79
2022/03/16 04:27:40;;;;;;;39.30;16.60;;;;;;;2.60;100.00;61084.75;5071984;28;20509;-75
2022/03/16 04:30:08;;;;;;;34.07;15.73;;;;;;;3.40;100.00;61169.78;5090334;28;20507;-77
2022/03/16 04:32:37;;;;;;;57.83;19.17;;;;;;;3.66;100.00;61196.88;5088441;28;20510;-76
2022/03/16 04:35:04;;;;;;;36.57;17.63;;;;;;;2.92;100.00;61118.75;5092093;28;20445;-74
2022/03/16 04:37:32;;;;;;;53.13;21.87;;;;;;;3.10;100.00;61138.41;5092242;28;21060;-76
2022/03/16 04:40:00;;;;;;;70.63;22.80;;;;;;;3.16;100.00;61144.78;5091831;28;21019;-76
2022/03/16 04:42:28;;;;;;;42.80;19.33;;;;;;;3.36;100.00;61165.53;5091999;28;20488;-74
2022/03/16 04:44:56;;;;;;;43.17;18.13;;;;;;;3.29;100.00;61155.56;5092355;28;20437;-75
2022/03/16 04:47:25;;;;;;;44.80;19.40;;;;;;;3.08;100.00;61136.25;5092103;28;20438;-77
2022/03/16 04:49:53;;;;;;;46.80;19.67;;;;;;;3.39;100.00;61168.69;5085100;28;20827;-75
2022/03/16 04:52:20;;;;;;;58.33;19.10;;;;;;;3.32;100.00;61166.31;5071634;28;20797;-75
2022/03/16 04:54:49;;;;;;;76.83;18.57;;;;;;;2.93;100.00;61117.28;5082985;28;20450;-76
2022/03/16 04:57:18;;;;;;;45.77;19.10;;;;;;;3.53;100.00;61183.59;5089835;28;21015;-77
2022/03/16 04:59:45;;;;;;;47.07;18.47;;;;;;;3.57;100.00;61187.84;5078720;28;20447;-75
2022/03/16 05:02:12;;;;;;;39.50;18.93;;;;;;;3.60;100.00;61193.56;5079333;28;20450;-75
2022/03/16 05:04:41;;;;;;;54.30;19.60;;;;;;;3.52;100.00;61184.50;5091422;28;20446;-78
2022/03/16 05:07:09;;;;;;;60.23;19.73;;;;;;;3.62;100.00;61197.66;5091414;28;21096;-75
2022/03/16 05:09:36;;;;;;;49.30;20.50;;;;;;;3.48;100.00;61178.28;5090480;28;20454;-76
2022/03/16 05:12:04;;;;;;;83.93;32.00;;;;;;;3.57;100.00;61187.31;5092012;28;20796;-74
2022/03/16 05:14:35;;;;;;;74.27;24.97;;;;;;;3.65;100.00;61198.88;5091900;28;20506;-78
2022/03/16 05:17:02;;;;;;;76.60;24.70;;;;;;;3.65;100.00;61196.34;5091373;28;20484;-76
2022/03/16 05:19:30;;;;;;;74.63;24.60;;;;;;;3.12;100.00;61145.03;5091719;28;20434;-73
2022/03/16 05:21:57;;;;;;;65.07;23.30;;;;;;;3.71;100.00;61202.72;5091300;28;20441;-74
2022/03/16 05:24:27;;;;;;;80.93;26.10;;;;;;;3.62;100.00;61190.66;5091378;28;20878;-74
2022/03/16 05:26:54;;;;;;;87.90;26.63;;;;;;;3.65;100.00;61193.81;5091762;28;20450;-74
2022/03/16 05:29:22;;;;;;;79.07;25.67;;;;;;;3.67;100.00;61201.00;5091084;28;20524;-73
2022/03/16 05:31:49;;;;;;;74.53;25.10;;;;;;;3.63;100.00;61193.69;5091255;28;20445;-76
2022/03/16 05:34:16;;;;;;;82.83;27.57;;;;;;;3.74;100.00;61202.88;5090867;28;20952;-76
2022/03/16 05:36:43;;;;;;;84.80;28.17;;;;;;;3.76;100.00;61208.06;5091349;28;21025;-75
2022/03/16 05:39:10;;;;;;;85.73;30.63;;;;;;;3.43;100.00;61168.44;5091484;28;20481;-77
2022/03/16 05:41:38;;;;;;;79.17;31.77;;;;;;;3.79;100.00;61211.25;5091065;28;20561;-75
2022/03/16 05:44:06;;;;;;;81.00;30.37;;;;;;;3.63;100.00;61194.22;5091586;28;20441;-75
2022/03/16 05:46:33;;;;;;;72.47;30.70;;;;;;;3.37;100.00;61169.09;5091292;28;20974;-75
2022/03/16 05:49:02;;;;;;;83.73;29.87;;;;;;;3.15;100.00;61140.66;5091448;28;20499;-75
2022/03/16 05:51:29;;;;;;;104.33;33.27;;;;;;;3.19;100.00;61142.41;5091200;28;20615;-76
2022/03/16 05:53:59;;;;;;;95.80;32.27;;;;;;;3.15;100.00;61143.19;5091201;28;20448;-75
2022/03/16 05:56:25;;;;;;;116.27;41.23;;;;;;;3.29;100.00;61153.03;5090831;28;20457;-75
2022/03/16 05:58:55;;;;;;;98.53;42.43;;;;;;;3.32;100.00;61163.78;5090636;28;20546;-75
2022/03/16 06:01:23;;;;;;;126.90;46.17;;;;;;;2.38;100.00;61062.41;5092007;28;20893;-77
2022/03/16 06:03:51;;;;;;;101.63;36.20;;;;;;;3.27;100.00;61161.50;5099567;28;20506;-75
2022/03/16 06:06:22;;;;;;;165.63;55.60;;;;;;;3.30;100.00;61159.66;5101508;28;20454;-73
2022/03/16 06:08:50;;;;;;;83.77;32.37;;;;;;;2.18;100.00;61046.19;5095692;28;21033;-74
2022/03/16 06:11:19;;;;;;;74.00;29.83;;;;;;;3.09;100.00;61139.31;5095040;28;20438;-75
2022/03/16 06:13:47;;;;;;;83.23;28.87;;;;;;;3.17;100.00;61145.31;5095815;28;20437;-71
2022/03/16 06:16:17;;;;;;;78.33;33.43;;;;;;;3.30;100.00;61154.09;5106116;28;20446;-75
2022/03/16 06:18:44;;;;;;;71.23;32.07;;;;;;;3.21;100.00;61150.09;5095158;28;20555;-73
2022/03/16 06:21:14;;;;;;;87.13;32.63;;;;;;;3.30;100.00;61159.66;5094348;28;20491;-74
2022/03/16 06:23:42;;;;;;;70.57;28.70;;;;;;;3.35;100.00;61164.44;5076633;28;20529;-75
2022/03/16 06:26:11;;;;;;;58.20;25.43;;;;;;;3.32;100.00;61161.25;5094856;28;20453;-75
2022/03/16 06:28:40;;;;;;;196.23;71.03;;;;;;;3.53;100.00;61181.06;5094519;28;20442;-75
2022/03/16 06:31:07;;;;;;;70.10;29.23;;;;;;;3.35;100.00;61164.44;5094441;28;20471;-75
2022/03/16 06:33:36;;;;;;;58.27;21.27;;;;;;;3.41;100.00;61170.81;5076528;28;20807;-74
2022/03/16 06:36:04;;;;;;;52.40;20.07;;;;;;;3.00;100.00;61124.72;5094494;28;20920;-77
2022/03/16 06:38:30;;;;;;;54.10;23.43;;;;;;;3.59;100.00;61189.97;5094475;28;20481;-76
2022/03/16 06:40:58;;;;;;;49.43;20.97;;;;;;;3.55;100.00;61185.19;5076253;28;20448;-72
2022/03/16 06:43:26;;;;;;;84.83;22.43;;;;;;;3.61;100.00;61192.09;5093814;28;20842;-74
2022/03/16 06:45:53;;;;;;;90.10;26.77;;;;;;;3.93;100.00;61226.13;5094473;28;20499;-77
2022/03/16 06:48:23;;;;;;;73.23;23.73;;;;;;;3.80;100.00;61206.75;5094349;28;20430;-76
2022/03/16 06:50:52;;;;;;;69.27;29.00;;;;;;;3.81;100.00;61215.88;5094586;28;20477;-75
2022/03/16 06:53:20;;;;;;;53.43;22.80;;;;;;;3.41;100.00;61168.31;5094083;28;20500;-73
2022/03/16 06:55:47;;;;;;;54.77;22.37;;;;;;;3.98;100.00;61231.47;5094083;28;20441;-74
2022/03/16 06:58:13;;;;;;;39.83;16.93;;;;;;;4.07;100.00;61236.00;5094261;28;20485;-75
2022/03/16 07:00:41;;;;;;;64.40;28.70;;;;;;;4.15;100.00;61249.53;5094174;28;20470;-74
2022/03/16 07:03:08;;;;;;;46.80;24.13;;;;;;;4.05;100.00;61238.91;5094024;28;20530;-73
2022/03/16 07:05:36;;;;;;;69.77;26.27;;;;;;;3.94;100.00;61226.66;5075726;28;20448;-74
2022/03/16 07:08:08;;;;;;;47.37;19.43;;;;;;;3.49;100.00;61173.75;5093971;28;20477;-74
2022/03/16 07:10:37;;;;;;;57.83;26.27;;;;;;;4.18;100.00;61252.75;5093901;28;20494;-74
2022/03/16 07:13:05;;;;;;;43.93;17.67;;;;;;;4.30;100.00;61262.47;5093795;28;20823;-75
2022/03/16 07:15:33;;;;;;;69.47;18.43;;;;;;;4.09;100.00;61243.16;5093736;28;20438;-74
2022/03/16 07:18:01;;;;;;;32.70;14.77;;;;;;;3.82;100.00;61208.88;5078584;28;20566;-73
2022/03/16 07:20:28;;;;;;;48.70;18.37;;;;;;;3.51;100.00;61178.94;5073450;28;20450;-76
2022/03/16 07:23:02;;;;;;;57.67;16.07;;;;;;;4.13;100.00;61244.91;5073382;28;20430;-73
2022/03/16 07:25:31;;;;;;;50.73;17.73;;;;;;;3.56;100.00;61181.75;5073461;28;20612;-74
2022/03/16 07:27:58;;;;;;;31.83;13.57;;;;;;;3.56;100.00;61196.84;5073267;28;20450;-75
2022/03/16 07:30:26;;;;;;;59.87;21.73;;;;;;;4.47;100.00;61278.03;5073168;28;20435;-73
2022/03/16 07:32:53;;;;;;;74.60;24.97;;;;;;;4.60;100.00;61296.38;5073127;28;20476;-75
2022/03/16 07:35:24;;;;;;;67.60;26.83;;;;;;;4.69;100.00;61306.50;5072874;28;20450;-75
2022/03/16 07:37:51;;;;;;;77.33;26.03;;;;;;;4.98;100.00;61336.84;5073051;28;20501;-74
2022/03/16 07:40:18;;;;;;;55.77;19.37;;;;;;;4.85;100.00;61323.00;5072997;28;20469;-74
2022/03/16 07:42:48;;;;;;;53.93;17.33;;;;;;;5.01;100.00;61342.56;5073466;28;20447;-74
2022/03/16 07:45:18;;;;;;;32.20;15.67;;;;;;;4.44;100.00;61279.88;5092655;28;20441;-74
2022/03/16 07:47:45;;;;;;;41.57;14.27;;;;;;;4.69;100.00;61305.97;5093155;28;20465;-77
2022/03/16 07:50:13;;;;;;;32.87;12.83;;;;;;;5.19;100.00;61361.75;5092993;28;20449;-76
2022/03/16 07:52:40;;;;;;;48.87;13.73;;;;;;;5.51;100.00;61397.84;5092537;28;21021;-78
2022/03/16 07:55:09;;;;;;;35.57;12.90;;;;;;;5.59;100.00;61403.84;5092117;28;20454;-78
2022/03/16 07:57:38;;;;;;;36.17;12.00;;;;;;;5.60;100.00;61400.38;5091830;28;21412;-76
2022/03/16 08:00:14;;;;;;;37.43;11.17;;;;;;;5.79;100.00;61420.63;5092201;28;20473;-75
2022/03/16 08:02:43;;;;;;;37.10;12.10;;;;;;;5.88;100.00;61432.22;5080557;28;20446;-77
2022/03/16 08:05:13;;;;;;;32.53;11.33;;;;;;;6.03;100.00;61448.25;5071305;28;20434;-77
2022/03/16 08:07:42;;;;;;;51.37;13.37;;;;;;;5.92;100.00;61437.03;5071288;28;20458;-78
2022/03/16 08:10:11;;;;;;;28.00;11.97;;;;;;;6.04;100.00;61448.78;5071836;28;20446;-77
2022/03/16 08:12:39;;;;;;;29.53;13.17;;;;;;;5.84;100.00;61430.50;5074328;28;20546;-76
2022/03/16 08:15:07;;;;;;;33.90;12.83;;;;;;;5.37;100.00;61377.88;5071412;28;20438;-76
2022/03/16 08:17:38;;;;;;;31.00;13.00;;;;;;;5.57;100.00;61402.25;5071642;28;20482;-75
2022/03/16 08:20:06;;;;;;;43.47;13.27;;;;;;;5.74;100.00;61412.78;5072718;28;20459;-74
2022/03/16 08:22:36;;;;;;;42.73;13.83;;;;;;;6.14;100.00;61459.44;5082232;28;21038;-73
2022/03/16 08:25:05;;;;;;;46.50;15.03;;;;;;;6.15;100.00;61457.97;5076727;28;20964;-77
2022/03/16 08:27:33;;;;;;;43.33;14.00;;;;;;;6.41;100.00;61488.22;5071791;28;20447;-75
2022/03/16 08:30:00;;;;;;;83.30;17.67;;;;;;;5.86;100.00;61428.13;5071976;28;20434;-77
2022/03/16 08:32:27;;;;;;;52.27;15.87;;;;;;;6.78;100.00;61527.72;5072078;28;20511;-77
2022/03/16 08:34:57;;;;;;;42.87;15.23;;;;;;;6.30;100.00;61473.97;5071884;28;20457;-77
2022/03/16 08:37:24;;;;;;;43.63;16.83;;;;;;;6.81;100.00;61530.91;5074298;28;20445;-75
2022/03/16 08:39:51;;;;;;;70.77;18.73;;;;;;;7.09;100.00;61557.72;5071018;28;20486;-77
2022/03/16 08:42:19;;;;;;;58.17;21.03;;;;;;;7.31;100.00;61581.75;5071140;28;20446;-77
2022/03/16 08:44:46;;;;;;;51.93;20.13;;;;;;;7.18;100.00;61570.41;5074248;28;20507;-76
2022/03/16 08:47:16;;;;;;;58.90;23.40;;;;;;;7.38;100.00;61586.69;5087566;28;20919;-76
2022/03/16 08:49:44;;;;;;;78.73;23.57;;;;;;;7.43;100.00;61599.63;5092129;28;20445;-76
2022/03/16 08:52:13;;;;;;;55.27;24.47;;;;;;;7.47;99.72;61598.84;5091748;28;20450;-75
2022/03/16 08:54:41;;;;;;;52.80;21.43;;;;;;;7.52;100.00;61606.72;5091836;28;20449;-76
2022/03/16 08:57:10;;;;;;;55.43;19.90;;;;;;;7.68;100.00;61618.72;5091969;28;20524;-74
2022/03/16 08:59:38;;;;;;;57.70;22.77;;;;;;;7.21;100.00;61573.59;5091935;28;20593;-75
2022/03/16 09:02:09;;;;;;;47.23;19.37;;;;;;;8.05;100.00;61662.25;5092063;28;20498;-75
2022/03/16 09:04:37;;;;;;;40.90;16.43;;;;;;;8.02;100.00;61664.13;5091716;28;20442;-77
2022/03/16 09:07:05;;;;;;;46.93;18.07;;;;;;;8.11;100.00;61669.19;5087135;28;20443;-77
2022/03/16 09:09:33;;;;;;;49.60;16.17;;;;;;;8.26;100.00;61685.25;5092793;28;20461;-76
2022/03/16 09:12:02;;;;;;;54.77;18.03;;;;;;;8.43;95.31;61702.91;5092257;28;20450;-75
2022/03/16 09:14:29;;;;;;;51.00;19.50;;;;;;;8.24;98.38;61682.56;5094591;28;21031;-74
2022/03/16 09:16:57;;;;;;;65.53;21.40;;;;;;;8.15;100.00;61673.47;5097001;28;20469;-76
2022/03/16 09:19:24;;;;;;;45.57;18.83;;;;;;;8.03;100.00;61663.19;5096186;28;21048;-74
2022/03/16 09:21:56;;;;;;;51.83;17.00;;;;;;;7.99;100.00;61658.91;5091599;28;20441;-75
2022/03/16 09:24:25;;;;;;;54.27;16.80;;;;;;;8.02;100.00;61656.50;5091539;28;20441;-78
2022/03/16 09:26:59;;;;;;;40.10;14.00;;;;;;;8.13;100.00;61670.81;5088741;28;20541;-74
2022/03/16 09:29:29;;;;;;;34.20;13.30;;;;;;;7.66;100.00;61621.66;5088084;28;20452;-78
2022/03/16 09:31:57;;;;;;;39.23;12.73;;;;;;;8.23;97.87;61676.94;5091500;28;20502;-75
2022/03/16 09:34:27;;;;;;;36.60;12.73;;;;;;;8.49;94.84;61709.31;5091388;28;20450;-74
2022/03/16 09:36:56;;;;;;;33.30;14.07;;;;;;;8.83;93.06;61743.13;5091797;28;20437;-76
2022/03/16 09:39:23;;;;;;;29.53;14.43;;;;;;;8.76;91.93;61738.16;5089471;28;20490;-76
2022/03/16 09:41:52;;;;;;;30.53;14.17;;;;;;;8.53;93.89;61711.03;5096113;28;20449;-76
2022/03/16 09:44:22;;;;;;;38.97;15.47;;;;;;;8.90;93.52;61750.06;5098077;28;20438;-74
2022/03/16 09:46:52;;;;;;;35.97;15.00;;;;;;;8.91;95.23;61759.28;5095482;28;20454;-75
2022/03/16 09:49:22;;;;;;;37.27;16.47;;;;;;;9.15;96.60;61774.25;5095839;28;20526;-75
2022/03/16 09:51:51;;;;;;;32.70;16.03;;;;;;;8.68;94.91;61729.63;5094211;28;20203;-75
2022/03/16 09:54:19;;;;;;;41.00;16.37;;;;;;;9.50;97.82;61813.72;5095455;28;20434;-73
2022/03/16 09:56:47;;;;;;;32.70;16.03;;;;;;;9.00;96.90;61765.84;5095275;28;20496;-74
2022/03/16 09:59:17;;;;;;;40.33;16.43;;;;;;;9.54;91.49;61810.91;5076858;28;20477;-76
2022/03/16 10:01:46;;;;;;;35.10;15.37;;;;;;;8.71;89.81;61727.75;5095086;28;20302;-75
2022/03/16 10:04:15;;;;;;;48.27;17.63;;;;;;;9.54;91.79;61815.47;5094064;28;20195;-74
2022/03/16 10:06:43;;;;;;;38.70;18.07;;;;;;;9.53;90.02;61825.09;5076730;28;20456;-77
2022/03/16 10:15:07;;;;;;;49.70;19.93;;;;;;;9.50;93.39;61816.25;5094961;28;21034;-75
2022/03/16 10:17:45;;;;;;;46.43;21.27;;;;;;;9.33;93.78;61804.22;5093631;28;20870;-77
2022/03/16 10:20:23;;;;;;;45.80;21.73;;;;;;;9.52;92.77;61818.41;5093925;28;20621;-76
2022/03/16 10:22:54;;;;;;;45.90;22.23;;;;;;;8.97;91.40;61755.00;5093727;28;20210;-73
2022/03/16 10:25:21;;;;;;;45.83;23.73;;;;;;;9.41;89.41;61804.09;5093966;28;20871;-75
2022/03/16 10:27:53;;;;;;;56.90;24.40;;;;;;;8.70;91.63;61729.22;5095133;28;20441;-75
2022/03/16 10:30:21;;;;;;;48.87;25.23;;;;;;;9.05;93.94;61769.19;5106182;28;20199;-74
2022/03/16 10:32:59;;;;;;;61.07;24.30;;;;;;;9.13;95.56;61775.22;5100445;28;20879;-73
2022/03/16 10:35:26;;;;;;;53.17;24.00;;;;;;;9.11;95.81;61778.16;5093104;28;20223;-76
2022/03/16 10:38:07;;;;;;;59.73;25.47;;;;;;;8.99;99.98;61762.22;5094076;28;20200;-74
2022/03/16 10:40:35;;;;;;;62.20;24.97;;;;;;;9.01;99.54;61762.38;5090303;28;20564;-76
2022/03/16 10:48:58;;;;;;;50.90;19.93;;;;;;;8.87;100.00;61747.41;5093066;28;20441;-75
2022/03/16 10:51:25;;;;;;;63.70;21.80;;;;;;;8.89;100.00;61752.06;5093479;28;20525;-75
2022/03/16 10:53:53;;;;;;;47.77;19.87;;;;;;;8.85;100.00;61740.19;5093240;28;20479;-73
2022/03/16 10:56:23;;;;;;;51.70;19.33;;;;;;;8.80;100.00;61742.44;5093283;28;20801;-75
2022/03/16 10:58:55;;;;;;;60.97;21.77;;;;;;;8.82;100.00;61744.59;5093745;28;20894;-77
2022/03/16 11:01:23;;;;;;;58.50;23.17;;;;;;;9.24;99.64;61786.97;5093333;28;20528;-78
2022/03/16 11:03:52;;;;;;;51.43;20.80;;;;;;;8.80;96.72;61742.44;5092695;28;21028;-74
2022/03/16 11:06:22;;;;;;;44.83;21.50;;;;;;;9.38;93.90;61804.47;5092638;28;20206;-75
2022/03/16 11:08:50;;;;;;;45.13;22.10;;;;;;;9.45;93.41;61811.44;5093387;28;20199;-77
2022/03/16 11:14:04;;;;;;;45.27;21.43;;;;;;;9.62;93.77;61826.56;5094045;28;21045;-76
2022/03/16 11:16:32;;;;;;;48.13;21.67;;;;;;;9.35;91.75;61803.81;5093414;28;20650;-76
2022/03/16 11:19:05;;;;;;;53.37;23.90;;;;;;;9.93;90.27;61862.28;5075595;28;20223;-77
2022/03/16 11:21:45;;;;;;;52.97;21.57;;;;;;;9.84;90.09;61852.66;5093561;28;20688;-74
2022/03/16 11:24:17;;;;;;;54.93;21.53;;;;;;;9.77;89.40;61845.69;5087738;28;20199;-74
2022/03/16 11:27:15;;;;;;;49.97;21.70;;;;;;;8.82;89.39;61747.13;5071370;28;20200;-75
2022/03/16 11:29:51;;;;;;;55.50;21.53;;;;;;;9.48;90.01;61814.13;5056737;28;20450;-74
2022/03/16 11:32:21;;;;;;;63.23;22.63;;;;;;;9.45;90.54;61810.91;5073338;28;20261;-76
2022/03/16 11:34:58;;;;;;;60.40;23.37;;;;;;;9.70;90.92;61840.72;5073098;28;20435;-75
2022/03/16 11:37:34;;;;;;;52.67;21.10;;;;;;;9.68;89.62;61830.44;5072951;28;20442;-75
2022/03/16 11:40:10;;;;;;;61.50;21.23;;;;;;;9.73;88.71;61838.88;5073206;28;20255;-76
2022/03/16 11:42:37;;;;;;;57.50;22.20;;;;;;;9.76;87.71;61844.63;5073157;28;20188;-76